createdAt,value
2023-05-05T00:00:54.112Z,48.23
2023-05-05T00:03:59.643Z,48.09
2023-05-05T00:07:09.208Z,47.63
2023-05-05T00:10:14.718Z,47.77
2023-05-05T00:13:22.052Z,47.99
2023-05-05T00:16:27.728Z,48.35
2023-05-05T00:19:34.296Z,48.52
2023-05-05T00:22:42.559Z,48.71
2023-05-05T00:25:48.940Z,48.29
2023-05-05T00:28:54.493Z,49.41
2023-05-05T00:32:01.187Z,49.07
2023-05-05T00:35:06.936Z,49.03
2023-05-05T00:38:21.406Z,48.79
2023-05-05T00:41:27.129Z,47.80
2023-05-05T00:44:43.468Z,48.06
2023-05-05T00:47:53.075Z,48.71
2023-05-05T00:51:00.713Z,47.97
2023-05-05T00:54:09.720Z,48.54
2023-05-05T00:57:16.496Z,47.75
2023-05-05T01:00:22.003Z,48.97
2023-05-05T01:03:28.406Z,48.23
2023-05-05T01:06:51.882Z,49.15
2023-05-05T01:10:20.108Z,49.37
2023-05-05T01:13:39.760Z,49.68
2023-05-05T01:17:01.338Z,49.58
2023-05-05T01:20:25.161Z,49.66
2023-05-05T01:24:13.906Z,48.97
2023-05-05T01:27:50.848Z,49.35
2023-05-05T01:31:24.733Z,49.92
2023-05-05T01:34:43.458Z,49.64
2023-05-05T01:37:58.714Z,49.88
2023-05-05T01:41:14.822Z,49.62
2023-05-05T01:44:23.394Z,49.74
2023-05-05T01:47:32.628Z,49.37
2023-05-05T01:50:46.927Z,49.43
2023-05-05T01:53:55.782Z,50.28
2023-05-05T01:57:06.509Z,49.44
2023-05-05T02:00:14.870Z,50.04
2023-05-05T02:03:26.110Z,50.14
2023-05-05T02:06:38.274Z,49.14
2023-05-05T02:09:49.322Z,49.76
2023-05-05T02:12:57.401Z,48.97
2023-05-05T02:16:06.231Z,49.21
2023-05-05T02:19:13.157Z,48.59
2023-05-05T02:22:22.882Z,49.74
2023-05-05T02:25:38.751Z,49.63
2023-05-05T02:28:54.844Z,49.46
2023-05-05T02:32:10.547Z,50.00
2023-05-05T02:35:24.199Z,49.87
2023-05-05T02:38:37.166Z,49.37
2023-05-05T02:41:48.967Z,50.34
2023-05-05T02:45:11.075Z,50.39
2023-05-05T02:48:21.350Z,49.45
2023-05-05T02:51:29.117Z,49.75
2023-05-05T02:54:42.234Z,49.92
2023-05-05T02:58:07.066Z,49.71
2023-05-05T03:01:40.780Z,49.56
2023-05-05T03:04:57.585Z,49.28
2023-05-05T03:08:14.026Z,49.27
2023-05-05T03:11:33.683Z,48.94
2023-05-05T03:14:48.315Z,48.96
2023-05-05T03:17:59.742Z,49.27
2023-05-05T03:21:11.062Z,49.28
2023-05-05T03:24:22.219Z,49.68
2023-05-05T03:27:51.305Z,50.05
2023-05-05T03:31:00.089Z,49.48
2023-05-05T03:34:07.592Z,49.52
2023-05-05T03:37:19.960Z,50.21
2023-05-05T03:40:36.204Z,49.54
2023-05-05T03:43:52.508Z,49.60
2023-05-05T03:46:59.255Z,49.52
2023-05-05T03:50:07.050Z,49.94
2023-05-05T03:53:13.828Z,50.66
2023-05-05T03:56:20.359Z,50.25
2023-05-05T03:59:29.653Z,50.79
2023-05-05T04:02:35.492Z,50.82
2023-05-05T04:05:41.866Z,51.57
2023-05-05T04:08:47.833Z,51.88
2023-05-05T04:11:54.948Z,51.59
2023-05-05T04:15:03.891Z,52.04
2023-05-05T04:18:10.723Z,51.66
2023-05-05T04:21:16.705Z,50.84
2023-05-05T04:24:25.460Z,50.56
2023-05-05T04:27:33.214Z,51.07
2023-05-05T04:30:43.860Z,50.54
2023-05-05T04:33:49.395Z,50.78
2023-05-05T04:36:56.399Z,49.91
2023-05-05T04:40:02.286Z,50.30
2023-05-05T04:43:11.029Z,49.11
2023-05-05T04:46:20.005Z,48.90
2023-05-05T04:49:26.491Z,48.62
2023-05-05T04:52:32.268Z,48.92
2023-05-05T04:55:38.786Z,48.43
2023-05-05T04:58:44.346Z,47.88
2023-05-05T05:01:53.533Z,48.00
2023-05-05T05:04:59.070Z,46.92
2023-05-05T05:08:05.372Z,47.34
2023-05-05T05:11:10.862Z,46.45
2023-05-05T05:14:17.528Z,46.55
2023-05-05T05:17:27.079Z,46.32
2023-05-05T05:20:34.583Z,46.34
2023-05-05T05:23:40.298Z,46.40
2023-05-05T05:26:47.528Z,46.14
2023-05-05T05:29:53.108Z,46.53
2023-05-05T05:33:02.709Z,46.58
2023-05-05T05:36:09.391Z,45.98
2023-05-05T05:39:15.974Z,45.12
2023-05-05T05:42:21.603Z,46.27
2023-05-05T05:45:28.987Z,45.41
2023-05-05T05:48:38.469Z,44.42
2023-05-05T05:51:44.889Z,44.23
2023-05-05T05:54:51.624Z,44.36
2023-05-05T05:57:58.208Z,44.71
2023-05-05T06:01:05.432Z,43.52
2023-05-05T06:04:15.068Z,44.19
2023-05-05T06:07:21.018Z,43.39
2023-05-05T06:10:28.678Z,43.12
2023-05-05T06:13:42.318Z,43.12
2023-05-05T06:16:48.713Z,43.50
2023-05-05T06:20:00.797Z,42.86
2023-05-05T06:23:07.325Z,42.72
2023-05-05T06:26:16.135Z,43.33
2023-05-05T06:29:22.619Z,42.94
2023-05-05T06:32:28.215Z,42.84
2023-05-05T06:35:37.524Z,42.45
2023-05-05T06:38:43.016Z,42.35
2023-05-05T06:41:49.524Z,42.50
2023-05-05T06:44:55.199Z,42.16
2023-05-05T06:48:01.582Z,42.16
2023-05-05T06:51:10.385Z,42.13
2023-05-05T06:54:16.981Z,41.66
2023-05-05T06:57:27.212Z,41.19
2023-05-05T07:00:33.973Z,41.12
2023-05-05T07:03:40.132Z,41.03
2023-05-05T07:06:49.269Z,40.96
2023-05-05T07:09:55.042Z,40.60
2023-05-05T07:13:01.462Z,39.49
2023-05-05T07:16:07.759Z,39.81
2023-05-05T07:19:14.149Z,39.26
2023-05-05T07:22:22.650Z,38.43
2023-05-05T07:25:29.512Z,38.51
2023-05-05T07:28:35.060Z,38.75
2023-05-05T07:31:41.624Z,37.99
2023-05-05T07:34:47.181Z,38.10
2023-05-05T07:37:56.899Z,37.70
2023-05-05T07:41:02.381Z,38.27
2023-05-05T07:44:09.109Z,37.19
2023-05-05T07:47:14.672Z,37.40
2023-05-05T07:50:21.112Z,37.19
2023-05-05T07:53:29.661Z,36.98
2023-05-05T07:56:36.046Z,36.33
2023-05-05T07:59:43.666Z,36.76
2023-05-05T08:02:50.386Z,37.09
2023-05-05T08:05:58.359Z,36.83
2023-05-05T08:09:08.093Z,36.70
2023-05-05T08:12:15.420Z,36.83
2023-05-05T08:15:22.521Z,36.76
2023-05-05T08:18:28.342Z,36.64
2023-05-05T08:21:34.892Z,37.05
2023-05-05T08:24:43.176Z,35.86
2023-05-05T08:27:49.576Z,36.29
2023-05-05T08:30:55.259Z,34.21
2023-05-05T08:34:02.933Z,34.77
2023-05-05T08:37:08.369Z,34.11
2023-05-05T08:40:18.392Z,34.37
2023-05-05T08:43:24.505Z,34.67
2023-05-05T08:46:31.774Z,33.36
2023-05-05T08:49:49.091Z,33.52
2023-05-05T08:53:10.884Z,32.93
2023-05-05T08:56:22.221Z,33.56
2023-05-05T08:59:30.664Z,33.23
2023-05-05T09:02:39.446Z,32.68
2023-05-05T09:05:47.764Z,32.42
2023-05-05T09:08:55.623Z,31.60
2023-05-05T09:12:06.899Z,31.46
2023-05-05T09:15:14.657Z,31.55
2023-05-05T09:18:21.362Z,32.08
2023-05-05T09:21:29.589Z,32.49
2023-05-05T09:24:36.066Z,32.21
2023-05-05T09:27:47.581Z,31.63
2023-05-05T09:30:54.130Z,31.83
2023-05-05T09:34:01.322Z,32.40
2023-05-05T09:37:07.907Z,31.60
2023-05-05T09:40:17.207Z,31.57
2023-05-05T09:43:28.307Z,32.04
2023-05-05T09:46:34.340Z,31.98
2023-05-05T09:49:42.095Z,32.59
2023-05-05T09:52:59.248Z,32.36
2023-05-05T09:56:05.802Z,31.66
2023-05-05T09:59:15.431Z,32.09
2023-05-05T10:02:21.993Z,32.35
2023-05-05T10:05:28.015Z,31.70
2023-05-05T10:08:35.613Z,31.93
2023-05-05T10:11:44.790Z,31.51
2023-05-05T10:14:59.420Z,30.88
2023-05-05T10:18:09.680Z,30.86
2023-05-05T10:21:25.252Z,31.26
2023-05-05T10:24:43.173Z,31.47
2023-05-05T10:27:56.332Z,31.15
2023-05-05T10:31:23.923Z,30.79
2023-05-05T10:34:44.116Z,30.71
2023-05-05T10:37:51.549Z,30.78
2023-05-05T10:41:01.062Z,30.43
2023-05-05T10:44:11.007Z,30.50
2023-05-05T10:47:23.458Z,30.60
2023-05-05T10:50:39.045Z,30.74
2023-05-05T10:54:02.411Z,30.76
2023-05-05T10:57:13.679Z,29.94
2023-05-05T11:00:53.709Z,30.60
2023-05-05T11:04:24.124Z,30.75
2023-05-05T11:07:30.558Z,31.77
2023-05-05T11:10:48.036Z,30.50
2023-05-05T11:14:24.371Z,31.25
2023-05-05T11:17:48.934Z,31.17
2023-05-05T11:21:21.431Z,31.06
2023-05-05T11:24:33.666Z,31.02
2023-05-05T11:28:10.841Z,31.13
2023-05-05T11:31:24.003Z,31.02
2023-05-05T11:34:31.632Z,30.61
2023-05-05T11:37:42.123Z,30.47
2023-05-05T11:40:51.145Z,30.50
2023-05-05T11:44:13.244Z,30.93
2023-05-05T11:47:34.648Z,30.86
2023-05-05T11:50:41.277Z,30.71
2023-05-05T11:53:53.040Z,31.09
2023-05-05T11:57:02.288Z,31.06
2023-05-05T12:00:12.181Z,30.22
2023-05-05T12:03:18.377Z,30.85
2023-05-05T12:06:25.126Z,30.82
2023-05-05T12:09:33.753Z,30.07
2023-05-05T12:12:42.708Z,30.29
2023-05-05T12:15:48.412Z,30.32
2023-05-05T12:19:08.312Z,30.60
2023-05-05T12:22:13.907Z,31.41
2023-05-05T12:25:23.230Z,31.35
2023-05-05T12:28:28.808Z,30.52
2023-05-05T12:31:39.607Z,30.24
2023-05-05T12:34:45.622Z,30.35
2023-05-05T12:37:52.189Z,31.03
2023-05-05T12:41:00.727Z,31.43
2023-05-05T12:44:09.291Z,31.80
2023-05-05T12:47:15.860Z,31.85
2023-05-05T12:50:34.141Z,31.57
2023-05-05T12:53:40.058Z,31.42
2023-05-05T12:56:50.873Z,31.47
2023-05-05T12:59:58.281Z,31.40
2023-05-05T13:03:06.429Z,31.45
2023-05-05T13:06:24.844Z,31.24
2023-05-05T13:09:34.230Z,31.09
2023-05-05T13:12:42.853Z,30.93
2023-05-05T13:15:49.557Z,30.87
2023-05-05T13:18:55.837Z,30.48
2023-05-05T13:22:03.203Z,30.89
2023-05-05T13:25:09.939Z,30.80
2023-05-05T13:28:19.606Z,30.88
2023-05-05T13:31:25.445Z,30.19
2023-05-05T13:34:32.439Z,30.59
2023-05-05T13:37:38.013Z,31.03
2023-05-05T13:40:44.517Z,30.91
2023-05-05T13:43:52.880Z,30.91
2023-05-05T13:46:59.485Z,30.91
2023-05-05T13:50:05.871Z,31.37
2023-05-05T13:53:12.284Z,31.22
2023-05-05T13:56:18.492Z,30.76
2023-05-05T13:59:28.586Z,30.57
2023-05-05T14:02:37.131Z,30.68
2023-05-05T14:05:46.942Z,30.60
2023-05-05T14:08:52.561Z,30.37
2023-05-05T14:12:01.186Z,29.70
2023-05-05T14:15:11.999Z,30.20
2023-05-05T14:18:18.512Z,29.67
2023-05-05T14:21:24.069Z,30.06
2023-05-05T14:24:30.817Z,29.93
2023-05-05T14:27:37.605Z,29.50
2023-05-05T14:30:49.387Z,29.73
2023-05-05T14:33:54.950Z,29.13
2023-05-05T14:37:01.538Z,29.31
2023-05-05T14:40:08.024Z,29.57
2023-05-05T14:43:17.167Z,29.17
2023-05-05T14:46:26.491Z,28.93
2023-05-05T14:49:32.769Z,29.61
2023-05-05T14:52:39.585Z,29.30
2023-05-05T14:55:45.944Z,29.38
2023-05-05T14:58:51.532Z,29.28
2023-05-05T15:02:00.905Z,29.18
2023-05-05T15:05:06.694Z,29.30
2023-05-05T15:08:14.751Z,28.98
2023-05-05T15:11:20.212Z,29.01
2023-05-05T15:14:26.820Z,29.29
2023-05-05T15:17:35.097Z,29.63
2023-05-05T15:20:41.475Z,29.94
2023-05-05T15:23:47.339Z,29.46
2023-05-05T15:26:53.782Z,29.03
2023-05-05T15:29:59.331Z,28.51
2023-05-05T15:33:08.513Z,29.04
2023-05-05T15:36:14.655Z,28.63
2023-05-05T15:39:21.074Z,27.98
2023-05-05T15:42:27.212Z,27.24
2023-05-05T15:45:33.828Z,26.38
2023-05-05T15:48:42.459Z,26.31
2023-05-05T15:51:48.850Z,25.86
2023-05-05T15:54:54.443Z,25.26
2023-05-05T15:58:00.805Z,25.70
2023-05-05T16:01:06.443Z,25.27
2023-05-05T16:04:15.991Z,25.02
2023-05-05T16:07:21.485Z,24.96
2023-05-05T16:10:28.215Z,24.96
2023-05-05T16:13:33.769Z,25.25
2023-05-05T16:16:40.366Z,25.81
2023-05-05T16:19:48.922Z,25.83
2023-05-05T16:22:55.333Z,25.72
2023-05-05T16:26:01.314Z,25.81
2023-05-05T16:29:07.967Z,25.11
2023-05-05T16:32:13.775Z,25.36
2023-05-05T16:35:23.825Z,25.45
2023-05-05T16:38:29.356Z,25.59
2023-05-05T16:41:35.857Z,25.83
2023-05-05T16:44:41.537Z,25.65
2023-05-05T16:47:48.188Z,25.65
2023-05-05T16:50:59.022Z,25.72
2023-05-05T16:54:05.614Z,25.72
2023-05-05T16:57:12.011Z,26.14
2023-05-05T17:00:19.268Z,26.29
2023-05-05T17:03:25.703Z,26.61
2023-05-05T17:06:37.227Z,27.32
2023-05-05T17:09:43.146Z,27.93
2023-05-05T17:12:49.581Z,27.78
2023-05-05T17:15:55.362Z,28.02
2023-05-05T17:19:01.885Z,27.95
2023-05-05T17:22:10.378Z,28.74
2023-05-05T17:25:16.972Z,28.90
2023-05-05T17:28:25.034Z,29.09
2023-05-05T17:31:31.880Z,29.49
2023-05-05T17:34:37.671Z,29.53
2023-05-05T17:37:48.308Z,29.79
2023-05-05T17:40:54.069Z,30.46
2023-05-05T17:44:01.217Z,30.66
2023-05-05T17:47:08.027Z,31.05
2023-05-05T17:50:15.329Z,31.67
2023-05-05T17:53:23.704Z,31.73
2023-05-05T17:56:30.367Z,32.20
2023-05-05T17:59:35.963Z,32.18
2023-05-05T18:02:42.646Z,32.45
2023-05-05T18:05:48.697Z,32.42
2023-05-05T18:08:59.794Z,32.73
2023-05-05T18:12:07.865Z,32.89
2023-05-05T18:15:15.794Z,33.17
2023-05-05T18:18:21.603Z,33.42
2023-05-05T18:21:28.945Z,33.28
2023-05-05T18:24:37.969Z,34.13
2023-05-05T18:27:45.211Z,33.59
2023-05-05T18:30:51.167Z,34.32
2023-05-05T18:33:58.075Z,34.28
2023-05-05T18:37:04.125Z,34.47
2023-05-05T18:40:15.431Z,34.58
2023-05-05T18:43:22.403Z,34.81
2023-05-05T18:46:31.188Z,34.86
2023-05-05T18:49:37.143Z,34.84
2023-05-05T18:52:46.203Z,34.97
2023-05-05T18:56:01.766Z,35.34
2023-05-05T18:59:13.840Z,35.50
2023-05-05T19:02:20.627Z,35.59
2023-05-05T19:05:32.889Z,36.14
2023-05-05T19:08:41.721Z,35.58
2023-05-05T19:11:52.305Z,36.31
2023-05-05T19:14:58.417Z,36.43
2023-05-05T19:18:07.799Z,36.52
2023-05-05T19:21:17.684Z,36.33
2023-05-05T19:24:26.981Z,36.55
2023-05-05T19:27:39.668Z,36.25
2023-05-05T19:30:56.373Z,36.35
2023-05-05T19:34:06.921Z,36.11
2023-05-05T19:37:19.253Z,36.11
2023-05-05T19:40:27.062Z,36.62
2023-05-05T19:43:38.916Z,37.08
2023-05-05T19:46:47.613Z,37.28
2023-05-05T19:49:59.266Z,36.82
2023-05-05T19:53:08.748Z,36.97
2023-05-05T19:56:17.281Z,37.14
2023-05-05T19:59:28.111Z,37.51
2023-05-05T20:02:37.053Z,37.19
2023-05-05T20:05:43.859Z,37.52
2023-05-05T20:08:52.592Z,37.77
2023-05-05T20:12:02.603Z,38.07
2023-05-05T20:15:18.937Z,37.50
2023-05-05T20:18:25.543Z,37.40
2023-05-05T20:21:32.775Z,37.58
2023-05-05T20:24:39.100Z,38.26
2023-05-05T20:27:47.476Z,38.24
2023-05-05T20:31:00.975Z,38.16
2023-05-05T20:34:09.569Z,38.51
2023-05-05T20:37:15.644Z,38.47
2023-05-05T20:40:22.717Z,38.32
2023-05-05T20:43:29.017Z,38.72
2023-05-05T20:46:38.769Z,38.79
2023-05-05T20:49:44.982Z,38.49
2023-05-05T20:52:52.613Z,38.60
2023-05-05T20:55:58.861Z,38.96
2023-05-05T20:59:05.704Z,38.80
2023-05-05T21:02:17.388Z,38.90
2023-05-05T21:05:24.547Z,38.90
2023-05-05T21:08:30.627Z,39.28
2023-05-05T21:11:37.620Z,39.52
2023-05-05T21:14:48.034Z,39.58
2023-05-05T21:17:58.630Z,39.69
2023-05-05T21:21:06.420Z,39.56
2023-05-05T21:24:13.327Z,39.82
2023-05-05T21:27:19.374Z,40.08
2023-05-05T21:30:30.608Z,39.74
2023-05-05T21:33:39.369Z,39.98
2023-05-05T21:36:46.695Z,40.37
2023-05-05T21:39:53.686Z,40.31
2023-05-05T21:43:00.590Z,40.55
2023-05-05T21:46:08.764Z,40.58
2023-05-05T21:49:20.508Z,41.15
2023-05-05T21:52:26.093Z,41.01
2023-05-05T21:55:32.656Z,40.87
2023-05-05T21:58:38.579Z,41.32
2023-05-05T22:01:45.154Z,41.10
2023-05-05T22:04:54.667Z,41.97
2023-05-05T22:08:01.200Z,41.22
2023-05-05T22:11:09.789Z,42.08
2023-05-05T22:14:16.236Z,41.78
2023-05-05T22:17:21.967Z,42.40
2023-05-05T22:20:31.769Z,42.47
2023-05-05T22:23:37.527Z,42.44
2023-05-05T22:26:44.178Z,43.10
2023-05-05T22:29:49.809Z,42.83
2023-05-05T22:32:56.567Z,43.55
2023-05-05T22:36:04.825Z,43.70
2023-05-05T22:39:11.277Z,43.92
2023-05-05T22:42:17.578Z,44.16
2023-05-05T22:45:25.560Z,44.49
2023-05-05T22:48:31.578Z,44.51
2023-05-05T22:51:40.937Z,45.03
2023-05-05T22:54:46.545Z,45.26
2023-05-05T22:57:52.886Z,45.56
2023-05-05T23:00:58.491Z,45.92
2023-05-05T23:04:04.864Z,45.81
2023-05-05T23:07:13.903Z,45.68
2023-05-05T23:10:20.495Z,45.46
2023-05-05T23:13:25.962Z,45.95
2023-05-05T23:16:32.361Z,46.08
2023-05-05T23:19:38.246Z,47.20
2023-05-05T23:22:47.362Z,46.09
2023-05-05T23:25:53.061Z,46.71
2023-05-05T23:28:59.846Z,46.26
2023-05-05T23:32:05.592Z,46.66
2023-05-05T23:35:13.009Z,46.49
2023-05-05T23:38:21.338Z,47.54
2023-05-05T23:41:27.674Z,46.85
2023-05-05T23:44:33.411Z,47.41
2023-05-05T23:47:40.028Z,47.74
2023-05-05T23:50:46.368Z,47.41
2023-05-05T23:53:55.946Z,47.71
2023-05-05T23:57:02.521Z,48.02
